Time;durP1;ratioP1;P1;durP2;ratioP2;P2;SDS_P1;SDS_P2;PMS_P1;PMS_P2;Temp;Humidity;BMP_temperature;BMP_pressure;BME280_temperature;BME280_humidity;BME280_pressure;Samples;Min_cycle;Max_cycle;Signal;HPM_P1;HPM_P2
2021/12/26 00:01:43;;;;;;;25.27;9.02;;;;;;;-148.16;100.00;58328.31;5033018;28;20037;-60
2021/12/26 00:04:30;;;;;;;21.95;9.25;;;;;;;-148.16;100.00;58328.31;5032091;28;20049;-60
2021/12/26 00:07:16;;;;;;;21.30;9.05;;;;;;;-148.16;100.00;58328.31;5032740;28;20045;-61
2021/12/26 00:10:05;;;;;;;21.55;8.13;;;;;;;-148.16;100.00;58328.31;5032376;28;20042;-61
2021/12/26 00:12:51;;;;;;;20.95;8.43;;;;;;;-148.16;100.00;58328.31;5032543;28;20037;-59
2021/12/26 00:15:36;;;;;;;21.95;8.60;;;;;;;-148.16;100.00;58328.31;5032641;28;20071;-59
2021/12/26 00:18:22;;;;;;;18.02;7.90;;;;;;;-148.16;100.00;58328.31;5032588;28;20045;-59
2021/12/26 00:21:08;;;;;;;25.10;9.15;;;;;;;-148.16;100.00;58328.31;5038367;28;20049;-59
2021/12/26 00:23:57;;;;;;;21.20;8.50;;;;;;;-148.16;100.00;58328.31;5032606;28;20488;-59
2021/12/26 00:26:43;;;;;;;27.40;10.52;;;;;;;-148.16;100.00;58328.31;5031550;28;20045;-60
2021/12/26 00:29:30;;;;;;;23.25;9.15;;;;;;;-148.16;100.00;58328.31;5032047;28;20041;-60
2021/12/26 00:32:15;;;;;;;23.50;8.60;;;;;;;-148.16;100.00;58328.31;5031268;28;20424;-59
2021/12/26 00:35:03;;;;;;;22.70;10.13;;;;;;;-148.16;100.00;58328.31;5037015;28;20053;-60
2021/12/26 00:37:50;;;;;;;24.85;9.10;;;;;;;-148.16;100.00;58328.31;5032557;28;20045;-60
2021/12/26 00:40:36;;;;;;;22.35;9.82;;;;;;;-148.16;100.00;58328.31;5032510;28;20050;-60
2021/12/26 00:43:22;;;;;;;26.30;10.18;;;;;;;-148.16;100.00;58328.31;5031958;28;20045;-60
2021/12/26 00:46:07;;;;;;;23.00;9.60;;;;;;;-148.16;100.00;58328.31;5031578;28;20493;-60
2021/12/26 00:48:53;;;;;;;25.35;10.57;;;;;;;-148.16;100.00;58328.31;5032735;28;20404;-60
2021/12/26 00:51:39;;;;;;;27.27;10.70;;;;;;;-148.16;100.00;58328.31;5032406;28;20049;-60
2021/12/26 00:54:25;;;;;;;22.00;8.85;;;;;;;-148.16;100.00;58328.31;5037163;28;20046;-60
2021/12/26 00:57:11;;;;;;;29.67;10.52;;;;;;;-148.16;100.00;58328.31;5031231;28;20483;-60
2021/12/26 00:59:57;;;;;;;25.63;8.73;;;;;;;-148.16;100.00;58328.31;5032564;28;20049;-60
2021/12/26 01:02:44;;;;;;;26.58;9.57;;;;;;;-148.16;100.00;58328.31;5032542;28;20046;-59
2021/12/26 01:05:32;;;;;;;22.92;9.25;;;;;;;-148.16;100.00;58328.31;5032536;28;20053;-59
2021/12/26 01:08:25;;;;;;;25.85;10.02;;;;;;;-148.16;100.00;58328.31;5017830;28;20168;-59
2021/12/26 01:11:35;;;;;;;25.83;9.90;;;;;;;-148.16;100.00;58328.31;5017428;28;20041;-60
2021/12/26 01:14:27;;;;;;;24.05;9.02;;;;;;;-148.16;100.00;58328.31;5032644;28;20429;-59
2021/12/26 01:17:22;;;;;;;21.77;8.80;;;;;;;-148.16;100.00;58328.31;5032080;28;20045;-60
2021/12/26 01:20:46;;;;;;;26.10;9.48;;;;;;;-148.16;100.00;58328.31;5031347;28;20042;-59
2021/12/26 01:23:33;;;;;;;23.55;10.57;;;;;;;-148.16;100.00;58328.31;5036908;28;20045;-60
2021/12/26 01:26:20;;;;;;;23.60;9.52;;;;;;;-148.16;100.00;58328.31;5031167;28;20049;-59
2021/12/26 01:29:06;;;;;;;24.48;10.10;;;;;;;-148.16;100.00;58328.31;5022872;28;20405;-61
2021/12/26 01:31:54;;;;;;;25.80;10.55;;;;;;;-148.16;100.00;58328.31;5018319;28;20045;-60
2021/12/26 01:35:01;;;;;;;19.33;8.48;;;;;;;-148.16;100.00;58328.31;5031051;28;20049;-60
2021/12/26 01:37:52;;;;;;;23.92;8.77;;;;;;;-148.16;100.00;58328.31;5032178;28;20053;-60
2021/12/26 01:40:58;;;;;;;24.58;9.57;;;;;;;-148.16;100.00;58328.31;5038583;28;20049;-60
2021/12/26 01:43:59;;;;;;;23.85;10.63;;;;;;;-148.16;100.00;58328.31;5034953;28;20053;-60
2021/12/26 01:46:55;;;;;;;26.55;10.25;;;;;;;-148.16;100.00;58328.31;5021754;28;20045;-60
2021/12/26 01:49:47;;;;;;;23.17;9.57;;;;;;;-148.16;100.00;58328.31;5034418;28;20041;-61
2021/12/26 01:52:33;;;;;;;22.08;9.32;;;;;;;-148.16;100.00;58328.31;5034325;28;20054;-60
2021/12/26 01:55:26;;;;;;;27.48;10.40;;;;;;;-148.16;100.00;58328.31;5034243;28;20408;-60
2021/12/26 01:58:24;;;;;;;26.25;9.00;;;;;;;-148.16;100.00;58328.31;5020218;28;20057;-59
2021/12/26 02:01:13;;;;;;;20.60;9.63;;;;;;;-148.16;100.00;58328.31;5034194;28;20268;-58
2021/12/26 02:04:00;;;;;;;25.70;9.88;;;;;;;-148.16;100.00;58328.31;5035029;28;20397;-60
2021/12/26 02:06:46;;;;;;;29.70;10.75;;;;;;;-148.16;100.00;58328.31;5034010;28;20049;-60
2021/12/26 02:09:33;;;;;;;21.20;9.77;;;;;;;-148.16;100.00;58328.31;5034132;28;20408;-60
2021/12/26 02:12:21;;;;;;;21.48;8.55;;;;;;;-148.16;100.00;58328.31;5034110;28;20041;-60
2021/12/26 02:15:09;;;;;;;29.13;10.48;;;;;;;-148.16;100.00;58328.31;5039659;28;20045;-59
2021/12/26 02:18:15;;;;;;;21.13;9.65;;;;;;;-148.16;100.00;58328.31;5033614;28;20053;-60
2021/12/26 02:24:14;;;;;;;24.88;9.60;;;;;;;-148.16;100.00;58328.31;5033680;28;20053;-58
2021/12/26 02:27:36;;;;;;;22.73;9.35;;;;;;;-148.16;100.00;58328.31;5033776;28;20045;-59
2021/12/26 02:30:14;;;;;;;;;;;;;;;-148.16;100.00;58328.31;5041939;28;20544;-59
2021/12/26 02:33:04;;;;;;;20.20;8.38;;;;;;;-148.16;100.00;58328.31;5033920;28;19916;-59
2021/12/26 02:35:51;;;;;;;21.40;9.48;;;;;;;-148.16;100.00;58328.31;5033602;28;20401;-59
2021/12/26 02:38:37;;;;;;;25.25;8.85;;;;;;;-148.16;100.00;58328.31;5025772;28;20400;-59
2021/12/26 02:41:24;;;;;;;24.27;8.65;;;;;;;-148.16;100.00;58328.31;5033574;28;20373;-59
2021/12/26 02:44:09;;;;;;;24.65;10.38;;;;;;;-148.16;100.00;58328.31;5031965;28;20473;-59
2021/12/26 02:46:58;;;;;;;23.40;8.82;;;;;;;-148.16;100.00;58328.31;5006510;28;20495;-59
2021/12/26 02:49:44;;;;;;;26.70;10.23;;;;;;;-148.16;100.00;58328.31;5033984;28;20050;-60
2021/12/26 02:52:29;;;;;;;31.35;10.45;;;;;;;-148.16;100.00;58328.31;5032705;28;20045;-60
2021/12/26 02:55:19;;;;;;;23.63;10.18;;;;;;;-148.16;100.00;58328.31;5033212;28;20041;-60
2021/12/26 02:58:08;;;;;;;20.67;8.73;;;;;;;-148.16;100.00;58328.31;5033089;28;20401;-59
2021/12/26 03:01:22;;;;;;;22.08;8.70;;;;;;;-148.16;100.00;58328.31;5032876;28;20377;-59
2021/12/26 03:04:08;;;;;;;25.65;10.18;;;;;;;-148.16;100.00;58328.31;5038773;28;20412;-60
2021/12/26 03:07:02;;;;;;;23.75;9.65;;;;;;;-148.16;100.00;58328.31;5031160;28;20404;-60
2021/12/26 03:09:49;;;;;;;23.73;9.95;;;;;;;-148.16;100.00;58328.31;5013722;28;20413;-60
2021/12/26 03:12:40;;;;;;;20.70;8.88;;;;;;;-148.16;100.00;58328.31;5012959;28;20457;-61
2021/12/26 03:15:28;;;;;;;23.88;9.40;;;;;;;-148.16;100.00;58328.31;5014161;28;20050;-60
2021/12/26 03:18:14;;;;;;;24.27;9.48;;;;;;;-148.16;100.00;58328.31;5018476;28;20045;-61
2021/12/26 03:21:00;;;;;;;20.88;9.40;;;;;;;-148.16;100.00;58328.31;5033870;28;20049;-60
2021/12/26 03:23:46;;;;;;;20.55;8.55;;;;;;;-148.16;100.00;58328.31;5038833;28;20477;-60
2021/12/26 03:26:32;;;;;;;19.35;8.45;;;;;;;-148.16;100.00;58328.31;5034010;28;20396;-61
2021/12/26 03:29:18;;;;;;;25.02;8.65;;;;;;;-148.16;100.00;58328.31;5024511;28;20049;-60
2021/12/26 03:32:05;;;;;;;27.80;11.57;;;;;;;-148.16;100.00;58328.31;5024561;28;20049;-59
2021/12/26 03:34:51;;;;;;;22.75;9.98;;;;;;;-148.16;100.00;58328.31;5032877;28;20045;-59
2021/12/26 03:37:38;;;;;;;23.27;8.68;;;;;;;-148.16;100.00;58328.31;5032542;28;20050;-61
2021/12/26 03:40:35;;;;;;;26.27;9.32;;;;;;;-148.16;100.00;58328.31;5033415;28;20092;-59
2021/12/26 03:43:21;;;;;;;22.63;8.93;;;;;;;-148.16;100.00;58328.31;5032378;28;20050;-59
2021/12/26 03:46:08;;;;;;;24.48;9.50;;;;;;;-148.16;100.00;58328.31;5032334;28;20049;-59
2021/12/26 03:48:55;;;;;;;24.63;9.60;;;;;;;-148.16;100.00;58328.31;5024544;28;20037;-60
2021/12/26 03:51:41;;;;;;;24.70;8.63;;;;;;;-148.16;100.00;58328.31;5032142;28;20085;-60
2021/12/26 03:54:28;;;;;;;17.17;7.38;;;;;;;-148.16;100.00;58328.31;5032286;28;20049;-60
2021/12/26 03:57:14;;;;;;;20.25;8.50;;;;;;;-148.16;100.00;58328.31;5032435;28;20056;-59
2021/12/26 04:00:00;;;;;;;20.38;9.50;;;;;;;-148.16;100.00;58328.31;5031981;28;20045;-59
2021/12/26 04:02:46;;;;;;;25.98;8.38;;;;;;;-148.16;100.00;58328.31;5031698;28;20049;-60
2021/12/26 04:05:33;;;;;;;22.77;8.98;;;;;;;-148.16;100.00;58328.31;5032054;28;20049;-59
2021/12/26 04:08:19;;;;;;;22.02;10.02;;;;;;;-148.16;100.00;58328.31;5032776;28;20057;-60
2021/12/26 04:11:05;;;;;;;20.88;9.07;;;;;;;-148.16;100.00;58328.31;5032885;28;20053;-60
2021/12/26 04:13:51;;;;;;;27.50;9.27;;;;;;;-148.16;100.00;58328.31;5018333;28;20050;-60
2021/12/26 04:16:37;;;;;;;20.10;8.93;;;;;;;-148.16;100.00;58328.31;5032191;28;20041;-60
2021/12/26 04:19:23;;;;;;;21.13;8.95;;;;;;;-148.16;100.00;58328.31;5032148;28;20428;-60
2021/12/26 04:22:10;;;;;;;25.42;8.00;;;;;;;-148.16;100.00;58328.31;5031824;28;20053;-60
2021/12/26 04:24:55;;;;;;;28.75;10.15;;;;;;;-148.16;100.00;58328.31;5033196;28;20049;-60
2021/12/26 04:27:41;;;;;;;20.60;8.82;;;;;;;-148.16;100.00;58328.31;5032583;28;20404;-60
2021/12/26 04:30:28;;;;;;;18.92;8.70;;;;;;;-148.16;100.00;58328.31;5031507;28;20400;-60
2021/12/26 04:33:14;;;;;;;23.33;9.52;;;;;;;-148.16;100.00;58328.31;5031652;28;20053;-60
2021/12/26 04:36:00;;;;;;;25.27;9.45;;;;;;;-148.16;100.00;58328.31;5031454;28;20049;-60
2021/12/26 04:38:46;;;;;;;24.10;9.35;;;;;;;-148.16;100.00;58328.31;5031522;28;20049;-60
2021/12/26 04:41:33;;;;;;;27.33;9.85;;;;;;;-148.16;100.00;58328.31;5018225;28;20049;-60
2021/12/26 04:44:38;;;;;;;21.80;8.48;;;;;;;-148.16;100.00;58328.31;5032882;28;20049;-60
2021/12/26 04:47:43;;;;;;;22.58;9.15;;;;;;;-148.16;100.00;58328.31;5032429;28;20049;-61
2021/12/26 04:50:30;;;;;;;19.77;8.75;;;;;;;-148.16;100.00;58328.31;5031502;28;20049;-60
2021/12/26 04:53:18;;;;;;;25.48;9.45;;;;;;;-148.16;100.00;58328.31;5031668;28;20049;-60
2021/12/26 04:56:05;;;;;;;22.83;9.27;;;;;;;-148.16;100.00;58328.31;5031697;28;20053;-60
2021/12/26 04:58:51;;;;;;;26.40;9.60;;;;;;;-148.16;100.00;58328.31;5031360;28;20054;-60
2021/12/26 05:01:37;;;;;;;24.70;9.98;;;;;;;-148.16;100.00;58328.31;5032609;28;20050;-60
2021/12/26 05:04:23;;;;;;;20.83;9.60;;;;;;;-148.16;100.00;58328.31;5032183;28;20042;-60
2021/12/26 05:07:09;;;;;;;22.67;8.88;;;;;;;-148.16;100.00;58328.31;5032265;28;20160;-60
2021/12/26 05:09:54;;;;;;;22.15;9.20;;;;;;;-148.16;100.00;58328.31;5032748;28;20054;-60
2021/12/26 05:12:40;;;;;;;22.55;8.93;;;;;;;-148.16;100.00;58328.31;5031235;28;20041;-60
2021/12/26 05:15:27;;;;;;;25.95;10.35;;;;;;;-148.16;100.00;58328.31;5033350;28;20405;-60
2021/12/26 05:18:15;;;;;;;26.55;10.45;;;;;;;-148.16;100.00;58328.31;5026979;28;20053;-60
2021/12/26 05:21:03;;;;;;;29.02;9.88;;;;;;;-148.16;100.00;58328.31;5035164;28;20049;-60
2021/12/26 05:23:49;;;;;;;22.33;8.85;;;;;;;-148.16;100.00;58328.31;5026622;28;20493;-60
2021/12/26 05:26:35;;;;;;;24.95;9.48;;;;;;;-148.16;100.00;58328.31;5035804;28;20160;-59
2021/12/26 05:29:20;;;;;;;22.77;9.52;;;;;;;-148.16;100.00;58328.31;5034889;28;20456;-60
2021/12/26 05:32:07;;;;;;;27.67;9.73;;;;;;;-148.16;100.00;58328.31;5020841;28;20045;-60
2021/12/26 05:34:53;;;;;;;29.42;9.57;;;;;;;-148.16;100.00;58328.31;5026865;28;20064;-60
2021/12/26 05:37:40;;;;;;;24.23;9.45;;;;;;;-148.16;100.00;58328.31;5034989;28;20045;-59
2021/12/26 05:40:26;;;;;;;26.25;9.48;;;;;;;-148.16;100.00;58328.31;5034509;28;20045;-60
2021/12/26 05:43:12;;;;;;;22.05;9.32;;;;;;;-148.16;100.00;58328.31;5034490;28;20046;-60
2021/12/26 05:45:58;;;;;;;23.90;8.93;;;;;;;-148.16;100.00;58328.31;5034318;28;20054;-60
2021/12/26 05:48:44;;;;;;;22.80;7.85;;;;;;;-148.16;100.00;58328.31;5034434;28;20049;-60
2021/12/26 05:51:45;;;;;;;21.77;9.25;;;;;;;-148.16;100.00;58328.31;5034448;28;20045;-60
2021/12/26 05:54:58;;;;;;;24.40;8.95;;;;;;;-148.16;100.00;58328.31;5041327;28;20049;-60
2021/12/26 05:57:45;;;;;;;29.05;9.15;;;;;;;-148.16;100.00;58328.31;5026410;28;20061;-60
2021/12/26 06:00:30;;;;;;;27.48;9.98;;;;;;;-148.16;100.00;58328.31;5034488;28;20049;-60
2021/12/26 06:03:18;;;;;;;21.90;8.48;;;;;;;-148.16;100.00;58328.31;5021022;28;20045;-60
2021/12/26 06:06:04;;;;;;;21.30;8.55;;;;;;;-148.16;100.00;58328.31;5026131;28;20436;-60
2021/12/26 06:08:56;;;;;;;20.48;8.63;;;;;;;-148.16;100.00;58328.31;5034098;28;20057;-60
2021/12/26 06:11:43;;;;;;;23.33;8.73;;;;;;;-148.16;100.00;58328.31;5035593;28;20042;-60
2021/12/26 06:14:28;;;;;;;17.88;7.78;;;;;;;-148.16;100.00;58328.31;5034475;28;20049;-60
2021/12/26 06:17:15;;;;;;;26.25;9.35;;;;;;;-148.16;100.00;58328.31;5034082;28;20045;-59
2021/12/26 06:20:29;;;;;;;25.10;9.98;;;;;;;-148.16;100.00;58328.31;5034970;28;20045;-60
2021/12/26 06:23:34;;;;;;;23.55;8.82;;;;;;;-148.16;100.00;58328.31;5034673;28;20396;-60
2021/12/26 06:26:40;;;;;;;21.92;8.75;;;;;;;-148.16;100.00;58328.31;5033776;28;20046;-60
2021/12/26 06:29:58;;;;;;;23.38;8.80;;;;;;;-148.16;100.00;58328.31;5039548;28;20038;-60
2021/12/26 06:33:09;;;;;;;22.70;10.07;;;;;;;-148.16;100.00;58328.31;5034890;28;20041;-59
2021/12/26 06:36:15;;;;;;;21.02;8.98;;;;;;;-148.16;100.00;58328.31;5034799;28;20124;-59
2021/12/26 06:39:19;;;;;;;27.90;10.40;;;;;;;-148.16;100.00;58328.31;5039747;28;20054;-61
2021/12/26 06:42:24;;;;;;;22.25;8.60;;;;;;;-148.16;100.00;58328.31;5034862;28;20041;-59
2021/12/26 06:45:28;;;;;;;28.08;9.52;;;;;;;-148.16;100.00;58328.31;5034870;28;20045;-59
2021/12/26 06:48:37;;;;;;;31.50;11.68;;;;;;;-148.16;100.00;58328.31;5026289;28;20401;-60
2021/12/26 06:51:23;;;;;;;21.17;9.10;;;;;;;-148.16;100.00;58328.31;5033764;28;20049;-60
2021/12/26 06:54:09;;;;;;;21.85;8.57;;;;;;;-148.16;100.00;58328.31;5034674;28;20045;-59
2021/12/26 06:56:55;;;;;;;21.88;9.45;;;;;;;-148.16;100.00;58328.31;5034510;28;20041;-59
2021/12/26 06:59:42;;;;;;;19.98;8.00;;;;;;;-148.16;100.00;58328.31;5039049;28;20053;-60
2021/12/26 07:02:28;;;;;;;21.30;9.35;;;;;;;-148.16;100.00;58328.31;5039303;28;20057;-61
2021/12/26 07:05:17;;;;;;;27.55;9.25;;;;;;;-148.16;100.00;58328.31;5033227;28;20053;-60
2021/12/26 07:08:13;;;;;;;24.10;10.63;;;;;;;-148.16;100.00;58328.31;5032483;28;20432;-61
2021/12/26 07:11:09;;;;;;;20.80;8.93;;;;;;;-148.16;100.00;58328.31;5020284;28;20049;-59
2021/12/26 07:13:56;;;;;;;22.05;10.18;;;;;;;-148.16;100.00;58328.31;5032935;28;20057;-60
2021/12/26 07:16:44;;;;;;;25.52;8.98;;;;;;;-148.16;100.00;58328.31;5033003;28;20041;-61
2021/12/26 07:19:29;;;;;;;22.10;9.02;;;;;;;-148.16;100.00;58328.31;5019571;28;20057;-60
2021/12/26 07:22:23;;;;;;;22.40;9.32;;;;;;;-148.16;100.00;58328.31;5025324;28;20157;-60
2021/12/26 07:25:10;;;;;;;19.65;8.98;;;;;;;-148.16;100.00;58328.31;5024926;28;20045;-61
2021/12/26 07:27:56;;;;;;;23.85;9.45;;;;;;;-148.16;100.00;58328.31;5018973;28;20053;-60
2021/12/26 07:30:57;;;;;;;21.13;8.23;;;;;;;-148.16;100.00;58328.31;5033480;28;20041;-60
2021/12/26 07:33:43;;;;;;;24.92;9.05;;;;;;;-148.16;100.00;58328.31;5032371;28;20045;-59
2021/12/26 07:36:29;;;;;;;23.85;9.40;;;;;;;-148.16;100.00;58328.31;5032470;28;20050;-59
2021/12/26 07:39:38;;;;;;;27.35;8.98;;;;;;;-148.16;100.00;58328.31;5021430;28;20050;-59
2021/12/26 07:42:24;;;;;;;20.08;7.95;;;;;;;-148.16;100.00;58328.31;5038528;28;20041;-60
2021/12/26 07:45:42;;;;;;;21.20;7.85;;;;;;;-148.16;100.00;58328.31;5032389;28;20045;-61
2021/12/26 07:48:31;;;;;;;22.38;9.27;;;;;;;-148.16;100.00;58328.31;5032435;28;20045;-60
2021/12/26 07:51:19;;;;;;;21.25;8.45;;;;;;;-148.16;100.00;58328.31;5033282;28;20041;-59
2021/12/26 07:54:24;;;;;;;24.33;8.68;;;;;;;-148.16;100.00;58328.31;5033190;28;20053;-59
2021/12/26 07:57:29;;;;;;;26.88;8.73;;;;;;;-148.16;100.00;58328.31;5033128;28;20041;-59
2021/12/26 08:00:47;;;;;;;18.75;9.10;;;;;;;-148.16;100.00;58328.31;5033007;28;20045;-59
2021/12/26 08:03:52;;;;;;;22.45;8.93;;;;;;;-148.16;100.00;58328.31;5023899;28;20053;-60
2021/12/26 08:07:06;;;;;;;;;;;;;;;-148.16;100.00;58328.31;5027769;28;20049;-60
2021/12/26 08:09:51;;;;;;;24.23;10.15;;;;;;;-148.16;100.00;58328.31;5032680;28;19917;-60
2021/12/26 08:12:37;;;;;;;26.77;10.43;;;;;;;-148.16;100.00;58328.31;5032230;28;20046;-60
2021/12/26 08:15:23;;;;;;;23.73;10.25;;;;;;;-148.16;100.00;58328.31;5023982;28;20049;-60
2021/12/26 08:18:09;;;;;;;28.33;9.18;;;;;;;-148.16;100.00;58328.31;5037888;28;20400;-60
2021/12/26 08:20:55;;;;;;;25.38;9.43;;;;;;;-148.16;100.00;58328.31;5023920;28;20053;-60
2021/12/26 08:23:41;;;;;;;25.02;8.93;;;;;;;-148.16;100.00;58328.31;5033132;28;20046;-59
2021/12/26 08:26:27;;;;;;;20.52;9.93;;;;;;;-148.16;100.00;58328.31;5033075;28;20041;-59
2021/12/26 08:29:13;;;;;;;26.75;9.95;;;;;;;-148.16;100.00;58328.31;5032904;28;20116;-60
2021/12/26 08:32:00;;;;;;;21.25;8.48;;;;;;;-148.16;100.00;58328.31;5032456;28;20050;-59
2021/12/26 08:34:46;;;;;;;27.02;10.35;;;;;;;-148.16;100.00;58328.31;5031681;28;20053;-59
2021/12/26 08:37:32;;;;;;;21.60;9.13;;;;;;;-148.16;100.00;58328.31;5033107;28;20408;-60
2021/12/26 08:40:18;;;;;;;28.15;11.05;;;;;;;-148.16;100.00;58328.31;5032728;28;20049;-60
2021/12/26 08:43:03;;;;;;;31.13;11.70;;;;;;;-148.16;100.00;58328.31;5033039;28;20477;-59
2021/12/26 08:45:50;;;;;;;23.25;10.70;;;;;;;-148.16;100.00;58328.31;5032648;28;20050;-60
2021/12/26 08:48:35;;;;;;;36.30;14.23;;;;;;;-148.16;100.00;58328.31;5032686;28;20057;-61
2021/12/26 08:51:21;;;;;;;28.17;11.00;;;;;;;-148.16;100.00;58328.31;5039803;28;20049;-59
2021/12/26 08:54:08;;;;;;;30.08;11.63;;;;;;;-148.16;100.00;58328.31;5035675;28;20497;-60
2021/12/26 08:56:54;;;;;;;23.88;10.63;;;;;;;-148.16;100.00;58328.31;5036459;28;20045;-61
2021/12/26 08:59:41;;;;;;;22.90;10.82;;;;;;;-148.16;100.00;58328.31;5035425;28;20053;-60
2021/12/26 09:02:26;;;;;;;30.95;11.10;;;;;;;-148.16;100.00;58328.31;5036671;28;20045;-61
2021/12/26 09:05:13;;;;;;;28.70;11.95;;;;;;;-148.16;100.00;58328.31;5036804;28;20045;-60
2021/12/26 09:07:59;;;;;;;24.17;10.88;;;;;;;-148.16;100.00;58328.31;5036546;28;20041;-61
2021/12/26 09:10:45;;;;;;;32.88;9.77;;;;;;;-148.16;100.00;58328.31;5036169;28;20045;-60
2021/12/26 09:13:33;;;;;;;24.88;10.65;;;;;;;-148.16;100.00;58328.31;5036143;28;20049;-59
2021/12/26 09:16:18;;;;;;;31.60;12.38;;;;;;;-148.16;100.00;58328.31;5036118;28;20045;-59
2021/12/26 09:19:05;;;;;;;28.08;11.90;;;;;;;-148.16;100.00;58328.31;5035459;28;20045;-59
2021/12/26 09:21:51;;;;;;;35.25;13.75;;;;;;;-148.16;100.00;58328.31;5040844;28;20046;-60
2021/12/26 09:24:38;;;;;;;32.15;12.18;;;;;;;-148.16;100.00;58328.31;5036412;28;20049;-60
2021/12/26 09:27:24;;;;;;;27.23;11.95;;;;;;;-148.16;100.00;58328.31;5035241;28;20053;-60
2021/12/26 09:30:11;;;;;;;33.00;12.10;;;;;;;-148.16;100.00;58328.31;5035178;28;20045;-60
2021/12/26 09:32:57;;;;;;;31.92;13.07;;;;;;;-148.16;100.00;58328.31;5035961;28;20078;-60
2021/12/26 09:35:43;;;;;;;32.35;14.68;;;;;;;-148.16;100.00;58328.31;5035884;28;20042;-60
2021/12/26 09:38:29;;;;;;;36.13;13.25;;;;;;;-148.16;100.00;58328.31;5035708;28;20041;-60
2021/12/26 09:41:15;;;;;;;28.58;12.45;;;;;;;-148.16;100.00;58328.31;5035584;28;20057;-60
2021/12/26 09:44:02;;;;;;;30.60;12.00;;;;;;;-148.16;100.00;58328.31;5041559;28;20397;-60
2021/12/26 09:46:48;;;;;;;28.83;11.63;;;;;;;-148.16;100.00;58328.31;5035599;28;20068;-61
2021/12/26 09:49:34;;;;;;;28.80;12.77;;;;;;;-148.16;100.00;58328.31;5035917;28;20053;-60
2021/12/26 09:52:20;;;;;;;45.90;13.63;;;;;;;-148.16;100.00;58328.31;5035739;28;20046;-61
2021/12/26 09:55:06;;;;;;;33.00;13.40;;;;;;;-148.16;100.00;58328.31;5035308;28;20041;-59
2021/12/26 09:57:52;;;;;;;32.72;13.52;;;;;;;-148.16;100.00;58328.31;5035949;28;20045;-59
2021/12/26 10:00:41;;;;;;;28.48;9.30;;;;;;;-148.16;100.00;58328.31;5020868;28;20400;-60
2021/12/26 10:03:35;;;;;;;24.48;8.18;;;;;;;-148.16;100.00;58328.31;5035381;28;20057;-59
2021/12/26 10:06:21;;;;;;;17.42;6.28;;;;;;;-148.16;100.00;58328.31;5035361;28;20476;-60
2021/12/26 10:09:09;;;;;;;21.70;7.15;;;;;;;-148.16;100.00;58328.31;5035254;28;20042;-60
2021/12/26 10:11:58;;;;;;;17.65;6.28;;;;;;;-148.16;100.00;58328.31;5035028;28;20049;-60
2021/12/26 10:14:48;;;;;;;17.25;6.32;;;;;;;-148.16;100.00;58328.31;5034952;28;20056;-59
2021/12/26 10:17:34;;;;;;;15.70;6.30;;;;;;;-148.16;100.00;58328.31;5034105;28;20045;-59
2021/12/26 10:20:20;;;;;;;25.55;9.45;;;;;;;-148.16;100.00;58328.31;5033855;28;20072;-60
2021/12/26 10:23:29;;;;;;;24.67;9.27;;;;;;;-148.16;100.00;58328.31;5034684;28;20046;-59
2021/12/26 10:26:28;;;;;;;30.92;10.35;;;;;;;-148.16;100.00;58328.31;5034830;28;20045;-60
2021/12/26 10:29:16;;;;;;;31.70;10.40;;;;;;;-148.16;100.00;58328.31;5033536;28;20046;-59
2021/12/26 10:32:19;;;;;;;38.95;13.68;;;;;;;-148.16;100.00;58328.31;5034726;28;20045;-60
2021/12/26 10:35:13;;;;;;;35.17;13.77;;;;;;;-148.16;100.00;58328.31;5039613;28;20065;-60
2021/12/26 10:38:02;;;;;;;28.17;11.75;;;;;;;-148.16;100.00;58328.31;5025626;28;20049;-59
2021/12/26 10:40:49;;;;;;;29.40;12.13;;;;;;;-148.16;100.00;58328.31;5033649;28;20057;-61
2021/12/26 10:43:48;;;;;;;26.92;10.98;;;;;;;-148.16;100.00;58328.31;5033857;28;20045;-61
2021/12/26 10:46:35;;;;;;;35.42;11.80;;;;;;;-148.16;100.00;58328.31;5034885;28;20069;-60
2021/12/26 10:49:22;;;;;;;26.52;10.18;;;;;;;-148.16;100.00;58328.31;5034635;28;20488;-60
2021/12/26 10:52:17;;;;;;;18.40;8.13;;;;;;;-148.16;100.00;58328.31;5038940;28;20045;-60
2021/12/26 10:55:27;;;;;;;18.13;6.72;;;;;;;-148.16;100.00;58328.31;5039441;28;20045;-61
2021/12/26 10:58:15;;;;;;;15.80;6.32;;;;;;;-148.16;100.00;58328.31;5039209;28;20041;-61
2021/12/26 11:01:01;;;;;;;11.75;4.88;;;;;;;-148.16;100.00;58328.31;5034583;28;20075;-60
2021/12/26 11:03:46;;;;;;;13.23;5.13;;;;;;;-148.16;100.00;58328.31;5025228;28;20049;-61
2021/12/26 11:06:59;;;;;;;13.57;5.72;;;;;;;-148.16;100.00;58328.31;5034285;28;20053;-61
2021/12/26 11:09:45;;;;;;;12.98;5.55;;;;;;;-148.16;100.00;58328.31;5033573;28;20050;-60
2021/12/26 11:12:43;;;;;;;13.65;5.30;;;;;;;-148.16;100.00;58328.31;5018996;28;20046;-61
2021/12/26 11:15:36;;;;;;;15.95;5.10;;;;;;;-148.16;100.00;58328.31;5033999;28;20053;-60
2021/12/26 11:18:23;;;;;;;14.65;6.13;;;;;;;-148.16;100.00;58328.31;5033960;28;20049;-60
2021/12/26 11:21:13;;;;;;;17.50;6.72;;;;;;;-148.16;100.00;58328.31;5033908;28;20053;-60
2021/12/26 11:23:59;;;;;;;18.23;8.35;;;;;;;-148.16;100.00;58328.31;5034091;28;20049;-60
2021/12/26 11:26:45;;;;;;;16.05;7.28;;;;;;;-148.16;100.00;58328.31;5032827;28;20489;-61
2021/12/26 11:29:31;;;;;;;15.85;7.05;;;;;;;-148.16;100.00;58328.31;5033757;28;20049;-60
2021/12/26 11:32:18;;;;;;;15.52;5.93;;;;;;;-148.16;100.00;58328.31;5033892;28;20045;-60
2021/12/26 11:35:07;;;;;;;13.63;6.63;;;;;;;-148.16;100.00;58328.31;5033531;28;20046;-60
2021/12/26 11:37:55;;;;;;;25.35;10.30;;;;;;;-148.16;100.00;58328.31;5033664;28;20053;-61
2021/12/26 11:41:53;;;;;;;23.20;9.75;;;;;;;-148.16;100.00;58328.31;5023507;28;20468;-60
2021/12/26 11:45:25;;;;;;;28.77;11.13;;;;;;;-148.16;100.00;58328.31;5039118;28;20049;-60
2021/12/26 11:48:50;;;;;;;25.85;9.02;;;;;;;-148.16;100.00;58328.31;5033759;28;20053;-61
2021/12/26 11:52:41;;;;;;;25.85;10.02;;;;;;;-148.16;100.00;58328.31;5040587;28;20416;-60
2021/12/26 11:56:09;;;;;;;21.20;8.45;;;;;;;-148.16;100.00;58328.31;5032993;28;20041;-61
2021/12/26 11:59:22;;;;;;;27.67;10.70;;;;;;;-148.16;100.00;58328.31;5033423;28;20789;-60
2021/12/26 12:02:08;;;;;;;27.35;10.52;;;;;;;-148.16;100.00;58328.31;5033276;28;20054;-60
2021/12/26 12:05:13;;;;;;;18.17;8.23;;;;;;;-148.16;100.00;58328.31;5032877;28;20789;-60
2021/12/26 12:08:02;;;;;;;12.43;4.40;;;;;;;-148.16;100.00;58328.31;5037610;28;20045;-60
2021/12/26 12:10:56;;;;;;;10.85;4.22;;;;;;;-148.16;100.00;58328.31;5031818;28;20400;-60
2021/12/26 12:13:50;;;;;;;10.50;4.75;;;;;;;-148.16;100.00;58328.31;5031758;28;20480;-60
2021/12/26 12:16:36;;;;;;;11.93;4.80;;;;;;;-148.16;100.00;58328.31;5033143;28;20049;-60
2021/12/26 12:19:22;;;;;;;13.73;5.85;;;;;;;-148.16;100.00;58328.31;5032988;28;20049;-60
2021/12/26 12:22:07;;;;;;;14.35;6.80;;;;;;;-148.16;100.00;58328.31;5032703;28;20488;-60
2021/12/26 12:24:53;;;;;;;18.52;6.97;;;;;;;-148.16;100.00;58328.31;5032078;28;20045;-60
2021/12/26 12:28:16;;;;;;;22.52;7.68;;;;;;;-148.16;100.00;58328.31;5033191;28;20469;-61
2021/12/26 12:31:08;;;;;;;18.95;8.10;;;;;;;-148.16;100.00;58328.31;5037667;28;20049;-60
2021/12/26 12:34:08;;;;;;;8.32;4.45;;;;;;;-148.16;100.00;58328.31;5032485;28;20050;-59
2021/12/26 12:37:00;;;;;;;11.05;4.32;;;;;;;-148.16;100.00;58328.31;5037614;28;20041;-59
2021/12/26 12:40:05;;;;;;;14.35;6.03;;;;;;;-148.16;100.00;58328.31;5033485;28;20042;-60
2021/12/26 12:43:07;;;;;;;12.93;5.43;;;;;;;-148.16;100.00;58328.31;5032646;28;20045;-60
2021/12/26 12:45:53;;;;;;;6.40;3.15;;;;;;;-148.16;100.00;58328.31;5032627;28;20404;-61
2021/12/26 12:48:59;;;;;;;9.05;3.78;;;;;;;-148.16;100.00;58328.31;5032773;28;20052;-61
2021/12/26 12:51:46;;;;;;;9.20;4.18;;;;;;;-148.16;100.00;58328.31;5031527;28;20408;-60